To NAV CANADA Home Page Login to a new session Search on AWWS site Feedback and Comments Disclaimer Vers la page française équivalente Tips FAQ What's new on the site To the Forecasts and Observations / NOTAM section To "File a Flight Plan" website Publications and other links Update of the User's profile FIC Telephone Numbers My Weather Data Folder Route Weather Data Regional Weather Data Local Weather Data To the Forecasts and Observations / NOTAM section
Request Generated 05/25/2017 at 01:09:28 UTC . Weather information available at that time is displayed.

METAR/TAF

SCHEFFERVILLE/QC    (show WxCam)

SPECI CYKL 250106Z AUTO VRB02KT 5SM HZ SCT085 06/M02 A2984 RMK
SLP129=
METAR CYKL 250100Z AUTO 14004KT 9SM FEW080 SCT091 07/M02 A2984 RMK
SLP128=
SPECI CYKL 250041Z AUTO VRB02KT 7SM FEW080 SCT092 07/M02 A2984 RMK
SLP129=
SPECI CYKL 250039Z AUTO VRB02KT 3SM HZ SCT090 07/M02 A2984 RMK
SLP129=
SPECI CYKL 250033Z AUTO 00000KT 1SM HZ SCT090 07/M02 A2984 RMK
SLP128=
SPECI CYKL 250027Z AUTO 00000KT 3/4SM HZ BKN090 08/M00 A2984 RMK
SLP128=
SPECI CYKL 250021Z AUTO VRB02KT 1 3/4SM HZ BKN090 08/00 A2984 RMK
SLP127=
SPECI CYKL 250019Z AUTO VRB02KT 3SM HZ BKN090 08/M01 A2983 RMK
SLP126=
SPECI CYKL 250018Z AUTO VRB02KT 2 1/4SM HZ SCT090 08/M02 A2983 RMK
SLP126=
SPECI CYKL 250008Z AUTO 00000KT 1 3/4SM HZ BKN090 09/M02 A2983 RMK
VIS VRB 3/8-3 SLP125=
SPECI CYKL 250003Z AUTO 00000KT 4SM HZ BKN090 09/M01 A2983 RMK
SLP123=
METAR CYKL 250000Z AUTO 00000KT 9SM BKN090 09/M02 A2983 RMK SLP123=
SPECI CYKL 242344Z AUTO 14003KT 080V160 6SM HZ OVC090 09/M02 A2982
RMK SLP123=
SPECI CYKL 242331Z AUTO 11003KT 3SM HZ OVC090 10/M02 A2982 RMK
SLP123=
SPECI CYKL 242322Z AUTO 09003KT 320V110 2 1/4SM HZ BKN090 09/M03
A2982 RMK VIS VRB 1-3 SLP123=
SPECI CYKL 242313Z AUTO 34004KT 5SM HZ BKN085 10/M05 A2982 RMK
SLP122=
METAR CYKL 242300Z AUTO 32007KT 250V340 9SM BKN085 11/M05 A2982 RMK
SLP121=

TAF AMD CYKL 250031Z 2500/2508 VRB03KT P6SM BKN070 TEMPO 2500/2503
3/4SM HZ
RMK FCST BASED ON AUTO OBS. NXT FCST BY 250200Z=
Your time UTC time
Weather data provided by Environment Canada and NAV CANADA